createdAt,value
2024-04-17T00:02:22.534Z,10.31
2024-04-17T00:04:49.320Z,10.32
2024-04-17T00:07:15.785Z,10.46
2024-04-17T00:09:42.347Z,10.26
2024-04-17T00:12:08.824Z,10.75
2024-04-17T00:14:35.895Z,10.64
2024-04-17T00:17:02.459Z,10.55
2024-04-17T00:19:28.975Z,10.80
2024-04-17T00:21:56.174Z,10.58
2024-04-17T00:24:22.931Z,10.54
2024-04-17T00:26:49.526Z,10.78
2024-04-17T00:29:16.001Z,10.77
2024-04-17T00:31:42.471Z,10.63
2024-04-17T00:34:08.962Z,10.63
2024-04-17T00:36:35.442Z,10.34
2024-04-17T00:39:02.073Z,10.49
2024-04-17T00:41:28.517Z,10.56
2024-04-17T00:43:55.014Z,10.42
2024-04-17T00:46:21.748Z,10.30
2024-04-17T00:48:48.237Z,10.39
2024-04-17T00:51:14.956Z,10.39
2024-04-17T00:53:42.026Z,10.22
2024-04-17T00:56:08.969Z,10.55
2024-04-17T00:58:36.539Z,10.24
2024-04-17T01:01:03.040Z,10.23
2024-04-17T01:03:30.022Z,10.26
2024-04-17T01:05:56.664Z,10.12
2024-04-17T01:08:23.166Z,9.96
2024-04-17T01:10:59.405Z,10.25
2024-04-17T01:13:25.946Z,10.16
2024-04-17T01:15:52.469Z,9.91
2024-04-17T01:18:20.722Z,10.31
2024-04-17T01:20:47.243Z,10.20
2024-04-17T01:23:13.721Z,10.03
2024-04-17T01:25:40.306Z,9.91
2024-04-17T01:28:06.808Z,9.72
2024-04-17T01:30:33.331Z,9.42
2024-04-17T01:33:00.484Z,9.57
2024-04-17T01:35:27.087Z,9.68
2024-04-17T01:37:53.628Z,9.89
2024-04-17T01:40:20.153Z,9.67
2024-04-17T01:42:46.648Z,9.55
2024-04-17T01:45:13.108Z,9.51
2024-04-17T01:47:39.727Z,9.58
2024-04-17T01:50:08.194Z,9.52
2024-04-17T01:52:35.143Z,9.67
2024-04-17T01:55:01.658Z,9.53
2024-04-17T01:57:28.121Z,9.40
2024-04-17T01:59:54.628Z,9.57
2024-04-17T02:02:21.082Z,9.50
2024-04-17T02:04:47.586Z,9.58
2024-04-17T02:07:14.088Z,9.66
2024-04-17T02:09:40.538Z,9.15
2024-04-17T02:12:07.486Z,9.22
2024-04-17T02:14:34.039Z,9.29
2024-04-17T02:17:00.562Z,9.28
2024-04-17T02:19:27.070Z,9.25
2024-04-17T02:21:53.553Z,9.25
2024-04-17T02:24:20.006Z,9.27
2024-04-17T02:26:46.455Z,9.30
2024-04-17T02:29:12.970Z,9.58
2024-04-17T02:31:39.479Z,9.43
2024-04-17T02:34:05.917Z,9.35
2024-04-17T02:36:32.365Z,8.97
2024-04-17T02:38:58.896Z,8.72
2024-04-17T02:41:25.423Z,8.46
2024-04-17T02:43:51.968Z,8.39
2024-04-17T02:46:18.464Z,8.63
2024-04-17T02:48:44.977Z,7.86
2024-04-17T02:51:11.431Z,8.19
2024-04-17T02:53:37.874Z,8.07
2024-04-17T02:56:04.743Z,8.41
2024-04-17T02:58:31.231Z,8.00
2024-04-17T03:00:57.692Z,8.12
2024-04-17T03:03:24.159Z,8.42
2024-04-17T03:05:50.629Z,8.38
2024-04-17T03:08:17.117Z,8.44
2024-04-17T03:10:43.674Z,8.02
2024-04-17T03:13:10.176Z,8.04
2024-04-17T03:15:37.042Z,8.28
2024-04-17T03:18:03.967Z,8.28
2024-04-17T03:20:32.342Z,8.12
2024-04-17T03:22:58.833Z,8.42
2024-04-17T03:25:25.359Z,8.50
2024-04-17T03:27:51.893Z,8.24
2024-04-17T03:30:18.417Z,8.14
2024-04-17T03:32:44.962Z,8.17
2024-04-17T03:35:12.841Z,8.21
2024-04-17T03:37:39.376Z,8.03
2024-04-17T03:40:06.673Z,8.29
2024-04-17T03:42:33.139Z,8.32
2024-04-17T03:44:59.939Z,8.28
2024-04-17T03:47:26.597Z,8.34
2024-04-17T03:49:54.804Z,8.05
2024-04-17T03:52:21.436Z,8.02
2024-04-17T03:54:47.911Z,8.07
2024-04-17T03:57:14.398Z,8.04
2024-04-17T03:59:40.864Z,7.90
2024-04-17T04:02:10.952Z,7.94
2024-04-17T04:04:39.563Z,8.08
2024-04-17T04:07:06.198Z,8.14
2024-04-17T04:09:33.024Z,8.03
2024-04-17T04:11:59.510Z,8.26
2024-04-17T04:14:26.025Z,8.20
2024-04-17T04:16:52.575Z,8.21
2024-04-17T04:19:21.244Z,8.22
2024-04-17T04:21:47.818Z,8.36
2024-04-17T04:24:14.286Z,8.12
2024-04-17T04:26:40.784Z,8.08
2024-04-17T04:29:07.289Z,7.94
2024-04-17T04:31:33.768Z,8.13
2024-04-17T04:34:00.224Z,8.16
2024-04-17T04:36:26.728Z,8.19
2024-04-17T04:38:53.249Z,8.13
2024-04-17T04:41:19.735Z,8.02
2024-04-17T04:43:46.430Z,8.02
2024-04-17T04:46:12.900Z,7.91
2024-04-17T04:48:39.469Z,7.94
2024-04-17T04:51:06.037Z,7.74
2024-04-17T04:53:32.571Z,7.61
2024-04-17T04:56:00.403Z,7.65
2024-04-17T04:58:26.962Z,7.39
2024-04-17T05:00:53.501Z,7.42
2024-04-17T05:03:20.259Z,6.92
2024-04-17T05:05:46.731Z,6.94
2024-04-17T05:08:13.299Z,7.16
2024-04-17T05:10:39.861Z,7.22
2024-04-17T05:13:06.432Z,7.61
2024-04-17T05:15:32.951Z,7.63
2024-04-17T05:17:59.570Z,7.84
2024-04-17T05:20:27.538Z,7.72
2024-04-17T05:22:54.045Z,8.07
2024-04-17T05:25:21.525Z,8.14
2024-04-17T05:27:47.998Z,8.01
2024-04-17T05:30:14.650Z,8.35
2024-04-17T05:32:41.225Z,8.33
2024-04-17T05:35:07.815Z,8.47
2024-04-17T05:37:34.295Z,8.72
2024-04-17T05:40:01.185Z,9.06
2024-04-17T05:42:28.179Z,8.84
2024-04-17T05:44:54.643Z,8.85
2024-04-17T05:47:21.166Z,9.10
2024-04-17T05:49:47.659Z,8.78
2024-04-17T05:52:14.172Z,9.11
2024-04-17T05:54:40.636Z,9.12
2024-04-17T05:57:07.174Z,9.36
2024-04-17T05:59:33.670Z,8.97
2024-04-17T06:02:00.573Z,9.29
2024-04-17T06:04:27.490Z,9.55
2024-04-17T06:06:54.114Z,8.99
2024-04-17T06:09:20.606Z,9.33
2024-04-17T06:11:47.125Z,9.65
2024-04-17T06:14:13.690Z,10.30
2024-04-17T06:16:40.254Z,9.70
2024-04-17T06:19:06.788Z,9.80
2024-04-17T06:21:33.277Z,10.05
2024-04-17T06:23:59.755Z,10.01
2024-04-17T06:26:26.253Z,10.05
2024-04-17T06:28:52.863Z,9.77
2024-04-17T06:31:19.335Z,9.87
2024-04-17T06:33:45.801Z,10.41
2024-04-17T06:36:12.319Z,10.03
2024-04-17T06:38:39.070Z,9.99
2024-04-17T06:41:05.596Z,10.28
2024-04-17T06:43:32.142Z,10.19
2024-04-17T06:45:58.593Z,10.59
2024-04-17T06:48:26.511Z,10.13
2024-04-17T06:50:53.292Z,10.43
2024-04-17T06:53:19.791Z,10.56
2024-04-17T06:55:46.255Z,11.23
2024-04-17T06:58:12.760Z,10.84
2024-04-17T07:00:39.276Z,10.98
2024-04-17T07:03:06.231Z,10.94
2024-04-17T07:05:32.983Z,10.98
2024-04-17T07:07:59.786Z,10.76
2024-04-17T07:10:26.404Z,11.95
2024-04-17T07:12:52.964Z,11.53
2024-04-17T07:15:19.462Z,11.40
2024-04-17T07:17:45.983Z,11.92
2024-04-17T07:20:13.094Z,12.31
2024-04-17T07:22:39.628Z,12.50
2024-04-17T07:25:06.310Z,12.32
2024-04-17T07:27:32.793Z,12.39
2024-04-17T07:29:59.238Z,11.92
2024-04-17T07:32:25.738Z,12.28
2024-04-17T07:34:52.651Z,12.84
2024-04-17T07:37:20.297Z,12.81
2024-04-17T07:39:46.766Z,12.44
2024-04-17T07:42:13.336Z,12.87
2024-04-17T07:44:39.896Z,12.97
2024-04-17T07:47:06.477Z,13.13
2024-04-17T07:49:33.046Z,14.22
2024-04-17T07:51:59.575Z,13.71
2024-04-17T07:54:26.113Z,14.24
2024-04-17T07:56:52.619Z,14.45
2024-04-17T07:59:21.157Z,14.36
2024-04-17T08:01:47.686Z,14.42
2024-04-17T08:04:14.182Z,13.29
2024-04-17T08:06:40.724Z,13.08
2024-04-17T08:09:08.843Z,14.47
2024-04-17T08:11:38.911Z,13.64
2024-04-17T08:14:06.005Z,12.61
2024-04-17T08:16:32.668Z,12.83
2024-04-17T08:18:59.303Z,12.30
2024-04-17T08:21:26.072Z,12.86
2024-04-17T08:23:52.541Z,12.99
2024-04-17T08:26:19.033Z,13.40
2024-04-17T08:28:45.511Z,13.53
2024-04-17T08:31:12.940Z,14.60
2024-04-17T08:33:39.731Z,15.78
2024-04-17T08:36:06.640Z,15.31
2024-04-17T08:38:33.295Z,15.48
2024-04-17T08:40:59.955Z,15.31
2024-04-17T08:43:28.507Z,15.09
2024-04-17T08:45:56.324Z,15.18
2024-04-17T08:48:23.938Z,14.39
2024-04-17T08:50:52.410Z,14.18
2024-04-17T08:53:22.270Z,14.14
2024-04-17T08:55:49.302Z,13.17
2024-04-17T08:58:16.966Z,13.45
2024-04-17T09:00:44.528Z,13.06
2024-04-17T09:03:12.161Z,13.86
2024-04-17T09:05:39.539Z,12.87
2024-04-17T09:08:06.476Z,13.45
2024-04-17T09:10:33.226Z,14.08
2024-04-17T09:13:00.612Z,14.40
2024-04-17T09:15:28.501Z,15.05
2024-04-17T09:17:56.170Z,15.86
2024-04-17T09:20:22.740Z,17.44
2024-04-17T09:22:49.242Z,16.91
2024-04-17T09:25:16.967Z,15.62
2024-04-17T09:27:45.469Z,16.96
2024-04-17T09:30:13.424Z,15.57
2024-04-17T09:32:39.991Z,14.54
2024-04-17T09:35:11.532Z,14.92
2024-04-17T09:37:38.708Z,15.45
2024-04-17T09:40:07.109Z,15.24
2024-04-17T09:42:38.740Z,14.07
2024-04-17T09:45:06.012Z,13.63
2024-04-17T09:47:32.983Z,13.93
2024-04-17T09:50:02.669Z,13.92
2024-04-17T09:52:30.403Z,13.86
2024-04-17T09:54:57.353Z,13.85
2024-04-17T09:57:24.042Z,14.42
2024-04-17T09:59:50.860Z,14.36
2024-04-17T10:02:18.594Z,13.83
2024-04-17T10:04:47.144Z,13.70
2024-04-17T10:07:14.460Z,15.79
2024-04-17T10:09:41.368Z,16.92
2024-04-17T10:12:12.931Z,17.69
2024-04-17T10:14:40.333Z,16.66
2024-04-17T10:17:21.883Z,15.31
2024-04-17T10:19:57.206Z,15.42
2024-04-17T10:22:23.882Z,15.15
2024-04-17T10:24:50.446Z,14.14
2024-04-17T10:27:18.508Z,14.24
2024-04-17T10:29:44.999Z,15.23
2024-04-17T10:32:12.947Z,15.67
2024-04-17T10:34:43.619Z,16.31
2024-04-17T10:37:10.975Z,17.75
2024-04-17T10:39:38.964Z,17.58
2024-04-17T10:42:09.692Z,18.07
2024-04-17T10:44:37.185Z,17.49
2024-04-17T10:47:04.823Z,17.64
2024-04-17T10:49:39.159Z,18.53
2024-04-17T10:52:05.766Z,17.18
2024-04-17T10:54:34.978Z,16.85
2024-04-17T10:57:03.548Z,17.61
2024-04-17T10:59:30.271Z,18.85
2024-04-17T11:01:57.243Z,17.95
2024-04-17T11:04:25.003Z,17.24
2024-04-17T11:06:51.754Z,19.22
2024-04-17T11:09:18.622Z,18.02
2024-04-17T11:11:47.434Z,15.86
2024-04-17T11:14:17.532Z,15.70
2024-04-17T11:16:47.356Z,15.44
2024-04-17T11:19:14.876Z,15.78
2024-04-17T11:21:41.376Z,15.08
2024-04-17T11:24:17.482Z,14.83
2024-04-17T11:26:43.970Z,15.12
2024-04-17T11:29:23.565Z,15.46
2024-04-17T11:31:56.740Z,15.82
2024-04-17T11:34:25.553Z,16.03
2024-04-17T11:36:52.085Z,15.16
2024-04-17T11:39:19.255Z,15.31
2024-04-17T11:41:49.904Z,15.18
2024-04-17T11:44:16.561Z,15.04
2024-04-17T11:46:43.090Z,15.50
2024-04-17T11:49:09.999Z,15.70
2024-04-17T11:51:37.818Z,16.26
2024-04-17T11:54:05.011Z,17.11
2024-04-17T11:56:31.589Z,17.64
2024-04-17T11:58:58.126Z,18.74
2024-04-17T12:01:24.667Z,18.08
2024-04-17T12:03:51.250Z,17.06
2024-04-17T12:06:17.778Z,18.84
2024-04-17T12:08:44.376Z,19.10
2024-04-17T12:11:10.933Z,17.33
2024-04-17T12:13:37.616Z,17.60
2024-04-17T12:16:05.203Z,17.91
2024-04-17T12:18:31.745Z,16.71
2024-04-17T12:20:58.207Z,15.10
2024-04-17T12:23:24.814Z,14.18
2024-04-17T12:26:10.302Z,14.86
2024-04-17T12:28:36.780Z,15.22
2024-04-17T12:31:03.296Z,15.22
2024-04-17T12:33:30.012Z,15.21
2024-04-17T12:35:56.585Z,16.10
2024-04-17T12:38:23.357Z,15.69
2024-04-17T12:40:49.915Z,16.32
2024-04-17T12:43:17.055Z,15.11
2024-04-17T12:45:43.568Z,15.33
2024-04-17T12:48:11.695Z,16.58
2024-04-17T12:50:38.325Z,16.83
2024-04-17T12:53:07.912Z,16.15
2024-04-17T12:55:34.476Z,16.38
2024-04-17T12:58:00.946Z,15.43
2024-04-17T13:00:29.902Z,15.15
2024-04-17T13:02:57.702Z,14.83
2024-04-17T13:05:24.255Z,15.02
2024-04-17T13:07:50.761Z,14.86
2024-04-17T13:10:17.381Z,15.16
2024-04-17T13:12:43.832Z,14.16
2024-04-17T13:15:10.309Z,14.94
2024-04-17T13:17:36.893Z,14.28
2024-04-17T13:20:03.621Z,14.25
2024-04-17T13:22:30.903Z,14.40
2024-04-17T13:24:57.679Z,14.48
2024-04-17T13:27:24.691Z,14.66
2024-04-17T13:29:52.770Z,15.36
2024-04-17T13:32:19.393Z,14.71
2024-04-17T13:34:45.966Z,15.31
2024-04-17T13:37:12.494Z,14.38
2024-04-17T13:39:38.953Z,14.17
2024-04-17T13:42:05.847Z,13.77
2024-04-17T13:44:32.342Z,13.56
2024-04-17T13:46:58.871Z,13.70
2024-04-17T13:49:25.378Z,14.70
2024-04-17T13:51:51.851Z,14.45
2024-04-17T13:54:18.991Z,14.18
2024-04-17T13:56:45.482Z,14.72
2024-04-17T13:59:12.673Z,14.72
2024-04-17T14:01:39.333Z,14.47
2024-04-17T14:04:05.857Z,14.89
2024-04-17T14:06:32.521Z,15.21
2024-04-17T14:09:00.691Z,14.53
2024-04-17T14:11:27.217Z,13.95
2024-04-17T14:13:53.678Z,15.15
2024-04-17T14:16:20.148Z,15.23
2024-04-17T14:18:46.838Z,14.53
2024-04-17T14:21:16.055Z,14.27
2024-04-17T14:23:43.918Z,14.61
2024-04-17T14:26:10.478Z,14.29
2024-04-17T14:28:37.102Z,14.10
2024-04-17T14:31:05.414Z,14.09
2024-04-17T14:33:33.727Z,14.07
2024-04-17T14:36:07.590Z,14.30
2024-04-17T14:38:37.052Z,14.21
2024-04-17T14:41:07.080Z,14.66
2024-04-17T14:43:36.263Z,14.51
2024-04-17T14:46:04.453Z,14.04
2024-04-17T14:48:33.658Z,13.92
2024-04-17T14:51:05.300Z,13.93
2024-04-17T14:53:32.572Z,14.27
2024-04-17T14:56:01.490Z,14.43
2024-04-17T14:58:28.911Z,14.51
2024-04-17T15:00:55.539Z,14.42
2024-04-17T15:03:23.028Z,14.84
2024-04-17T15:05:49.684Z,14.33
2024-04-17T15:08:17.532Z,14.92
2024-04-17T15:10:44.008Z,15.13
2024-04-17T15:13:10.565Z,14.58
2024-04-17T15:15:37.111Z,15.67
2024-04-17T15:18:03.901Z,15.33
2024-04-17T15:20:30.632Z,15.65
2024-04-17T15:22:57.111Z,14.47
2024-04-17T15:25:23.606Z,15.13
2024-04-17T15:27:50.076Z,15.70
2024-04-17T15:30:16.638Z,15.44
2024-04-17T15:32:43.223Z,15.80
2024-04-17T15:35:09.878Z,14.84
2024-04-17T15:37:36.346Z,14.34
2024-04-17T15:40:02.873Z,14.04
2024-04-17T15:42:29.693Z,14.04
2024-04-17T15:44:56.175Z,13.75
2024-04-17T15:47:22.662Z,14.00
2024-04-17T15:49:53.080Z,12.92
2024-04-17T15:52:19.600Z,12.84
2024-04-17T15:54:48.526Z,11.54
2024-04-17T15:57:15.113Z,12.59
2024-04-17T15:59:44.772Z,12.32
2024-04-17T16:02:11.219Z,12.09
2024-04-17T16:04:37.706Z,12.68
2024-04-17T16:07:05.952Z,12.46
2024-04-17T16:09:32.480Z,12.56
2024-04-17T16:11:59.682Z,12.48
2024-04-17T16:14:26.453Z,13.27
2024-04-17T16:16:57.843Z,12.81
2024-04-17T16:19:25.368Z,10.80
2024-04-17T16:21:52.940Z,11.31
2024-04-17T16:24:19.547Z,12.30
2024-04-17T16:26:46.179Z,13.24
2024-04-17T16:29:12.637Z,13.64
2024-04-17T16:31:39.296Z,12.63
2024-04-17T16:34:06.657Z,12.94
2024-04-17T16:36:33.226Z,12.42
2024-04-17T16:38:59.817Z,12.26
2024-04-17T16:41:26.343Z,12.85
2024-04-17T16:43:52.826Z,12.38
2024-04-17T16:46:19.264Z,12.71
2024-04-17T16:48:45.839Z,13.04
2024-04-17T16:51:12.881Z,13.04
2024-04-17T16:53:40.288Z,12.97
2024-04-17T16:56:07.328Z,13.40
2024-04-17T16:58:38.390Z,13.28
2024-04-17T17:01:06.006Z,12.97
2024-04-17T17:03:32.880Z,12.85
2024-04-17T17:05:59.975Z,13.13
2024-04-17T17:08:26.597Z,13.23
2024-04-17T17:10:54.796Z,13.01
2024-04-17T17:13:22.294Z,12.89
2024-04-17T17:15:48.812Z,12.80
2024-04-17T17:18:15.504Z,12.81
2024-04-17T17:20:42.126Z,12.99
2024-04-17T17:23:08.646Z,12.65
2024-04-17T17:25:39.637Z,12.42
2024-04-17T17:28:06.164Z,12.40
2024-04-17T17:30:36.312Z,12.56
2024-04-17T17:33:02.887Z,12.41
2024-04-17T17:35:29.404Z,12.31
2024-04-17T17:37:56.068Z,12.15
2024-04-17T17:40:22.546Z,12.15
2024-04-17T17:42:49.147Z,12.42
2024-04-17T17:45:16.900Z,11.90
2024-04-17T17:47:45.299Z,12.11
2024-04-17T17:50:11.826Z,11.72
2024-04-17T17:52:38.308Z,12.07
2024-04-17T17:55:05.154Z,11.95
2024-04-17T17:57:31.639Z,11.99
2024-04-17T17:59:58.165Z,12.10
2024-04-17T18:02:26.233Z,11.58
2024-04-17T18:04:52.817Z,11.96
2024-04-17T18:07:19.300Z,11.86
2024-04-17T18:09:45.876Z,12.02
2024-04-17T18:12:12.370Z,11.93
2024-04-17T18:14:38.879Z,11.61
2024-04-17T18:17:05.609Z,11.78
2024-04-17T18:19:32.204Z,11.43
2024-04-17T18:21:58.763Z,11.34
2024-04-17T18:24:25.341Z,11.59
2024-04-17T18:26:51.817Z,11.72
2024-04-17T18:29:18.285Z,11.79
2024-04-17T18:31:45.074Z,11.62
2024-04-17T18:34:11.738Z,11.58
2024-04-17T18:36:38.469Z,11.45
2024-04-17T18:39:05.004Z,11.58
2024-04-17T18:41:33.119Z,11.88
2024-04-17T18:44:02.182Z,11.62
2024-04-17T18:46:29.101Z,11.60
2024-04-17T18:48:58.216Z,11.23
2024-04-17T18:51:25.269Z,11.23
2024-04-17T18:53:52.713Z,11.32
2024-04-17T18:56:30.202Z,11.26
2024-04-17T18:58:56.928Z,11.46
2024-04-17T19:01:24.566Z,11.55
2024-04-17T19:03:51.570Z,11.43
2024-04-17T19:06:19.731Z,11.50
2024-04-17T19:08:48.105Z,11.42
2024-04-17T19:11:14.796Z,11.43
2024-04-17T19:13:41.823Z,11.43
2024-04-17T19:16:16.409Z,11.24
2024-04-17T19:18:43.566Z,11.19
2024-04-17T19:21:12.106Z,10.95
2024-04-17T19:23:38.824Z,11.11
2024-04-17T19:26:05.515Z,11.12
2024-04-17T19:28:32.311Z,11.14
2024-04-17T19:31:01.055Z,11.26
2024-04-17T19:33:34.270Z,11.02
2024-04-17T19:36:27.131Z,10.85
2024-04-17T19:38:56.612Z,10.47
2024-04-17T19:41:24.780Z,10.72
2024-04-17T19:44:00.090Z,10.84
2024-04-17T19:46:26.954Z,10.75
2024-04-17T19:48:54.701Z,10.79
2024-04-17T19:51:22.514Z,10.66
2024-04-17T19:53:49.229Z,10.75
2024-04-17T19:56:17.585Z,10.48
2024-04-17T19:58:44.843Z,10.45
2024-04-17T20:01:11.910Z,10.58
2024-04-17T20:03:40.044Z,10.55
2024-04-17T20:06:07.348Z,10.60
2024-04-17T20:08:34.222Z,10.48
2024-04-17T20:11:01.746Z,10.67
2024-04-17T20:13:28.857Z,10.32
2024-04-17T20:16:03.071Z,9.92
2024-04-17T20:18:30.423Z,10.30
2024-04-17T20:21:00.412Z,10.24
2024-04-17T20:23:27.633Z,10.23
2024-04-17T20:26:03.792Z,10.24
2024-04-17T20:28:31.103Z,10.02
2024-04-17T20:31:04.847Z,10.08
2024-04-17T20:33:32.604Z,10.18
2024-04-17T20:36:04.357Z,10.32
2024-04-17T20:38:31.599Z,10.22
2024-04-17T20:40:59.985Z,10.23
2024-04-17T20:43:30.446Z,10.15
2024-04-17T20:45:57.393Z,9.90
2024-04-17T20:48:24.002Z,9.97
2024-04-17T20:50:50.879Z,9.99
2024-04-17T20:53:17.328Z,9.85
2024-04-17T20:55:53.680Z,9.67
2024-04-17T20:58:20.699Z,9.74
2024-04-17T21:01:07.430Z,9.68
2024-04-17T21:03:34.719Z,9.56
2024-04-17T21:06:08.511Z,9.63
2024-04-17T21:08:36.346Z,9.39
2024-04-17T21:11:08.015Z,9.65
2024-04-17T21:13:36.025Z,9.21
2024-04-17T21:16:18.770Z,9.29
2024-04-17T21:18:46.941Z,9.37
2024-04-17T21:21:13.445Z,9.34
2024-04-17T21:23:43.351Z,9.24
2024-04-17T21:26:16.728Z,9.13
2024-04-17T21:28:44.639Z,8.97
2024-04-17T21:31:17.285Z,9.03
2024-04-17T21:33:45.565Z,9.01
2024-04-17T21:36:12.621Z,9.07
2024-04-17T21:38:39.828Z,9.08
2024-04-17T21:41:06.517Z,9.16
2024-04-17T21:43:33.133Z,8.78
2024-04-17T21:46:08.195Z,9.19
2024-04-17T21:48:34.904Z,8.90
2024-04-17T21:51:03.534Z,8.82
2024-04-17T21:53:31.496Z,8.76
2024-04-17T21:55:59.764Z,8.75
2024-04-17T21:58:26.816Z,8.77
2024-04-17T22:00:55.290Z,8.71
2024-04-17T22:03:22.230Z,8.88
2024-04-17T22:05:48.871Z,8.93
2024-04-17T22:08:15.755Z,9.09
2024-04-17T22:10:45.623Z,8.74
2024-04-17T22:13:12.227Z,8.82
2024-04-17T22:15:38.729Z,8.57
2024-04-17T22:18:05.685Z,8.34
2024-04-17T22:20:32.212Z,8.35
2024-04-17T22:22:58.762Z,8.61
2024-04-17T22:25:25.334Z,8.72
2024-04-17T22:27:51.805Z,8.53
2024-04-17T22:30:18.395Z,8.46
2024-04-17T22:32:44.900Z,8.44
2024-04-17T22:35:11.414Z,8.51
2024-04-17T22:37:37.862Z,8.50
2024-04-17T22:40:04.668Z,8.36
2024-04-17T22:42:31.148Z,8.36
2024-04-17T22:45:00.615Z,8.19
2024-04-17T22:47:27.201Z,8.29
2024-04-17T22:49:54.368Z,8.06
2024-04-17T22:52:24.877Z,8.02
2024-04-17T22:54:51.421Z,8.09
2024-04-17T22:57:17.965Z,7.83
2024-04-17T22:59:44.494Z,8.01
2024-04-17T23:02:11.001Z,7.74
2024-04-17T23:04:37.573Z,7.93
2024-04-17T23:07:04.275Z,8.29
2024-04-17T23:09:30.851Z,8.43
2024-04-17T23:11:57.343Z,8.12
2024-04-17T23:14:23.912Z,8.30
2024-04-17T23:16:50.446Z,7.98
2024-04-17T23:19:23.830Z,8.07
2024-04-17T23:21:52.157Z,7.61
2024-04-17T23:24:18.665Z,7.78
2024-04-17T23:26:45.190Z,8.09
2024-04-17T23:29:11.665Z,7.86
2024-04-17T23:31:38.174Z,8.11
2024-04-17T23:34:04.639Z,8.02
2024-04-17T23:36:31.330Z,7.79
2024-04-17T23:38:57.841Z,7.76
2024-04-17T23:41:24.296Z,7.58
2024-04-17T23:43:50.741Z,7.57
2024-04-17T23:46:17.293Z,7.88
2024-04-17T23:48:43.879Z,7.95
2024-04-17T23:51:10.634Z,7.82
2024-04-17T23:53:37.091Z,7.84
2024-04-17T23:56:03.794Z,7.73
2024-04-17T23:58:30.238Z,7.81
